Silver City, Oklahoma
Current Conditions -  °F | °C
As of 8:15 PM on Wednesday 22 Oct 2014 (Local Time) from KCUH Reporting Station
Clear Clear  
Wind Chill: 64°   Ceiling: Unl
Heat Index: 64°   Visibility: 10mi
Dew Point: 61°   Wind: 3mph
Humidity: 88%   Direction: 170°S
Pressure: 30.1"   Gusts: NA
Location:  36.1951°N, 96.5871°W
Report Text: KCUH 230115Z AUTO 17003KT 10SM CLR 18/16 A3010 RMK AO2
Loading
Personal Weather Stations






























Interactive Weather Map
Tropical Storm Tracking
New forecast layout! Learn more

10-Day Weather Forecast

Advertisements
Track Severe Weather on mobile